createdAt,value
2022-10-28T00:00:51.000Z,96.15
2022-10-28T00:01:51.000Z,96.19
2022-10-28T00:02:51.000Z,96.45
2022-10-28T00:03:51.000Z,96.30
2022-10-28T00:04:51.000Z,96.50
2022-10-28T00:05:51.000Z,96.80
2022-10-28T00:06:51.000Z,96.60
2022-10-28T00:07:51.000Z,96.60
2022-10-28T00:08:51.000Z,96.70
2022-10-28T00:09:51.000Z,96.80
2022-10-28T00:10:51.000Z,96.90
2022-10-28T00:11:51.000Z,96.80
2022-10-28T00:12:51.000Z,96.80
2022-10-28T00:13:51.000Z,96.80
2022-10-28T00:14:51.000Z,96.60
2022-10-28T00:15:51.000Z,96.80
2022-10-28T00:16:51.000Z,96.80
2022-10-28T00:17:51.000Z,96.80
2022-10-28T00:18:51.000Z,96.50
2022-10-28T00:19:51.000Z,96.19
2022-10-28T00:20:51.000Z,96.09
2022-10-28T00:21:51.000Z,96.30
2022-10-28T00:22:51.000Z,96.50
2022-10-28T00:23:51.000Z,96.50
2022-10-28T00:24:51.000Z,96.30
2022-10-28T00:25:51.000Z,96.50
2022-10-28T00:26:51.000Z,96.50
2022-10-28T00:27:51.000Z,96.50
2022-10-28T00:28:50.000Z,96.39
2022-10-28T00:29:50.000Z,96.39
2022-10-28T00:30:50.000Z,96.30
2022-10-28T00:31:50.000Z,96.30
2022-10-28T00:32:50.000Z,96.19
2022-10-28T00:33:50.000Z,96.30
2022-10-28T00:34:50.000Z,96.09
2022-10-28T00:35:50.000Z,96.09
2022-10-28T00:36:50.000Z,96.19
2022-10-28T00:37:50.000Z,96.09
2022-10-28T00:38:50.000Z,95.99
2022-10-28T00:39:50.000Z,96.09
2022-10-28T00:40:50.000Z,95.99
2022-10-28T00:41:50.000Z,95.89
2022-10-28T00:42:50.000Z,95.79
2022-10-28T00:43:50.000Z,95.99
2022-10-28T00:44:50.000Z,96.09
2022-10-28T00:45:50.000Z,96.09
2022-10-28T00:46:50.000Z,96.09
2022-10-28T00:47:50.000Z,96.19
2022-10-28T00:48:50.000Z,95.99
2022-10-28T00:49:50.000Z,95.79
2022-10-28T00:50:50.000Z,95.68
2022-10-28T00:51:50.000Z,95.58
2022-10-28T00:52:50.000Z,95.48
2022-10-28T00:53:50.000Z,95.23
2022-10-28T00:54:50.000Z,95.13
2022-10-28T00:55:50.000Z,95.13
2022-10-28T00:56:50.000Z,95.23
2022-10-28T00:57:50.000Z,95.18
2022-10-28T00:58:50.000Z,95.03
2022-10-28T00:59:50.000Z,95.23
2022-10-28T01:00:50.000Z,95.23
2022-10-28T01:01:50.000Z,95.13
2022-10-28T01:02:50.000Z,95.23
2022-10-28T01:03:50.000Z,95.48
2022-10-28T01:04:50.000Z,95.48
2022-10-28T01:05:50.000Z,95.28
2022-10-28T01:06:50.000Z,95.13
2022-10-28T01:07:50.000Z,95.48
2022-10-28T01:08:50.000Z,95.58
2022-10-28T01:09:50.000Z,95.38
2022-10-28T01:10:50.000Z,95.38
2022-10-28T01:11:50.000Z,95.07
2022-10-28T01:12:50.000Z,94.98
2022-10-28T01:13:49.000Z,94.83
2022-10-28T01:14:49.000Z,95.13
2022-10-28T01:15:49.000Z,95.07
2022-10-28T01:16:49.000Z,95.07
2022-10-28T01:17:49.000Z,95.07
2022-10-28T01:18:49.000Z,95.07
2022-10-28T01:19:49.000Z,94.93
2022-10-28T01:20:49.000Z,95.07
2022-10-28T01:21:49.000Z,95.13
2022-10-28T01:22:49.000Z,94.73
2022-10-28T01:23:49.000Z,94.62
2022-10-28T01:24:49.000Z,94.62
2022-10-28T01:25:49.000Z,94.73
2022-10-28T01:26:49.000Z,94.73
2022-10-28T01:27:49.000Z,94.73
2022-10-28T01:28:49.000Z,94.62
2022-10-28T01:29:49.000Z,94.62
2022-10-28T01:30:49.000Z,94.62
2022-10-28T01:38:06.000Z,94.53
2022-10-28T01:38:06.000Z,94.53
2022-10-28T01:39:06.000Z,94.53
2022-10-28T01:40:06.000Z,94.53
2022-10-28T01:41:06.000Z,94.53
2022-10-28T01:42:06.000Z,94.42
2022-10-28T01:43:06.000Z,94.32
2022-10-28T01:44:06.000Z,94.32
2022-10-28T01:45:06.000Z,94.22
2022-10-28T01:46:06.000Z,94.37
2022-10-28T01:47:06.000Z,94.37
2022-10-28T01:48:06.000Z,94.37
2022-10-28T01:49:06.000Z,94.37
2022-10-28T01:50:06.000Z,94.46
2022-10-28T01:51:06.000Z,94.46
2022-10-28T01:52:06.000Z,94.77
2022-10-28T01:53:06.000Z,94.67
2022-10-28T01:54:06.000Z,94.77
2022-10-28T01:55:06.000Z,94.87
2022-10-28T01:56:06.000Z,94.98
2022-10-28T01:57:06.000Z,95.07
2022-10-28T01:58:06.000Z,95.18
2022-10-28T01:59:06.000Z,95.28
2022-10-28T02:00:06.000Z,95.18
2022-10-28T02:01:06.000Z,94.98
2022-10-28T02:02:06.000Z,94.87
2022-10-28T02:03:06.000Z,94.67
2022-10-28T02:04:06.000Z,94.67
2022-10-28T02:05:06.000Z,94.67
2022-10-28T02:06:06.000Z,94.67
2022-10-28T02:07:06.000Z,94.46
2022-10-28T02:08:06.000Z,94.46
2022-10-28T02:09:06.000Z,94.46
2022-10-28T02:10:06.000Z,94.46
2022-10-28T02:11:06.000Z,94.46
2022-10-28T02:12:06.000Z,94.67
2022-10-28T02:13:06.000Z,94.67
2022-10-28T02:14:06.000Z,94.77
2022-10-28T02:15:06.000Z,94.57
2022-10-28T02:16:06.000Z,94.67
2022-10-28T02:17:06.000Z,94.67
2022-10-28T02:18:06.000Z,94.67
2022-10-28T02:19:06.000Z,94.67
2022-10-28T02:20:06.000Z,94.61
2022-10-28T02:21:06.000Z,94.67
2022-10-28T02:22:06.000Z,94.71
2022-10-28T02:23:06.000Z,94.57
2022-10-28T02:24:06.000Z,94.41
2022-10-28T02:25:06.000Z,94.51
2022-10-28T02:26:06.000Z,94.26
2022-10-28T02:27:06.000Z,94.21
2022-10-28T02:28:06.000Z,94.21
2022-10-28T02:29:06.000Z,94.06
2022-10-28T02:30:06.000Z,93.86
2022-10-28T02:31:06.000Z,93.76
2022-10-28T02:32:06.000Z,93.76
2022-10-28T02:33:06.000Z,93.76
2022-10-28T02:34:06.000Z,93.65
2022-10-28T02:35:06.000Z,93.65
2022-10-28T02:36:07.000Z,93.45
2022-10-28T02:37:07.000Z,93.35
2022-10-28T02:38:07.000Z,93.25
2022-10-28T02:39:07.000Z,93.15
2022-10-28T02:40:07.000Z,93.25
2022-10-28T02:41:07.000Z,93.35
2022-10-28T02:42:07.000Z,93.35
2022-10-28T02:43:07.000Z,93.35
2022-10-28T02:44:07.000Z,93.25
2022-10-28T02:45:07.000Z,93.05
2022-10-28T02:46:07.000Z,92.84
2022-10-28T02:47:07.000Z,92.84
2022-10-28T02:48:07.000Z,92.84
2022-10-28T02:49:07.000Z,92.84
2022-10-28T02:50:07.000Z,92.84
2022-10-28T02:51:07.000Z,93.05
2022-10-28T02:52:07.000Z,93.09
2022-10-28T02:53:07.000Z,93.19
2022-10-28T02:54:07.000Z,93.29
2022-10-28T02:55:07.000Z,93.70
2022-10-28T02:56:07.000Z,93.70
2022-10-28T02:57:07.000Z,93.90
2022-10-28T02:58:07.000Z,94.00
2022-10-28T02:59:07.000Z,94.15
2022-10-28T03:00:07.000Z,94.15
2022-10-28T03:01:07.000Z,94.35
2022-10-28T03:02:07.000Z,94.56
2022-10-28T03:03:07.000Z,94.56
2022-10-28T03:04:07.000Z,94.66
2022-10-28T03:05:07.000Z,94.66
2022-10-28T03:06:07.000Z,95.01
2022-10-28T03:07:07.000Z,95.01
2022-10-28T03:08:07.000Z,95.10
2022-10-28T03:09:07.000Z,95.10
2022-10-28T03:10:07.000Z,95.21
2022-10-28T03:11:07.000Z,95.21
2022-10-28T03:12:07.000Z,95.21
2022-10-28T03:13:07.000Z,95.21
2022-10-28T03:14:07.000Z,95.41
2022-10-28T03:15:07.000Z,95.51
2022-10-28T03:16:07.000Z,95.72
2022-10-28T03:17:07.000Z,95.86
2022-10-28T03:18:07.000Z,95.97
2022-10-28T03:19:07.000Z,96.07
2022-10-28T03:20:07.000Z,96.07
2022-10-28T03:21:07.000Z,96.27
2022-10-28T03:22:07.000Z,96.27
2022-10-28T03:23:07.000Z,96.37
2022-10-28T03:24:07.000Z,96.37
2022-10-28T03:25:07.000Z,96.37
2022-10-28T03:26:07.000Z,96.37
2022-10-28T03:27:08.000Z,96.37
2022-10-28T03:28:08.000Z,96.47
2022-10-28T03:29:08.000Z,96.47
2022-10-28T03:30:08.000Z,96.68
2022-10-28T03:31:08.000Z,96.83
2022-10-28T03:32:08.000Z,96.83
2022-10-28T03:33:08.000Z,96.92
2022-10-28T03:34:08.000Z,97.03
2022-10-28T03:35:08.000Z,96.88
2022-10-28T03:36:08.000Z,96.78
2022-10-28T03:37:08.000Z,96.83
2022-10-28T03:38:08.000Z,96.78
2022-10-28T03:39:08.000Z,96.83
2022-10-28T03:40:08.000Z,96.92
2022-10-28T03:41:08.000Z,97.03
2022-10-28T03:42:08.000Z,97.13
2022-10-28T03:43:08.000Z,97.33
2022-10-28T03:44:08.000Z,97.44
2022-10-28T03:45:08.000Z,97.44
2022-10-28T03:46:08.000Z,97.44
2022-10-28T03:47:08.000Z,97.23
2022-10-28T03:48:08.000Z,97.33
2022-10-28T03:49:08.000Z,97.23
2022-10-28T03:50:08.000Z,97.33
2022-10-28T03:51:08.000Z,97.44
2022-10-28T03:52:08.000Z,97.44
2022-10-28T03:53:08.000Z,97.64
2022-10-28T03:54:08.000Z,97.53
2022-10-28T03:55:08.000Z,97.69
2022-10-28T03:56:08.000Z,97.78
2022-10-28T03:57:08.000Z,97.78
2022-10-28T03:58:08.000Z,97.89
2022-10-28T03:59:08.000Z,97.89
2022-10-28T04:00:08.000Z,97.99
2022-10-28T04:01:08.000Z,98.19
2022-10-28T04:02:08.000Z,98.19
2022-10-28T04:03:08.000Z,98.19
2022-10-28T04:04:08.000Z,98.09
2022-10-28T04:05:08.000Z,98.19
2022-10-28T04:06:08.000Z,98.19
2022-10-28T04:07:08.000Z,98.19
2022-10-28T04:08:08.000Z,98.30
2022-10-28T04:09:08.000Z,98.19
2022-10-28T04:10:08.000Z,98.14
2022-10-28T04:11:08.000Z,98.05
2022-10-28T04:12:08.000Z,97.74
2022-10-28T04:13:08.000Z,97.74
2022-10-28T04:14:08.000Z,97.53
2022-10-28T04:15:09.000Z,97.39
2022-10-28T04:16:09.000Z,97.39
2022-10-28T04:17:09.000Z,97.08
2022-10-28T04:18:09.000Z,96.68
2022-10-28T04:19:09.000Z,96.02
2022-10-28T04:20:09.000Z,95.41
2022-10-28T04:21:09.000Z,94.76
2022-10-28T04:22:09.000Z,94.45
2022-10-28T04:23:09.000Z,94.05
2022-10-28T04:24:09.000Z,93.60
2022-10-28T04:25:09.000Z,93.29
2022-10-28T04:26:09.000Z,92.89
2022-10-28T04:27:09.000Z,92.79
2022-10-28T04:28:09.000Z,92.48
2022-10-28T04:29:09.000Z,92.33
2022-10-28T04:30:09.000Z,92.13
2022-10-28T04:31:09.000Z,92.03
2022-10-28T04:32:09.000Z,92.03
2022-10-28T04:33:09.000Z,92.13
2022-10-28T04:34:09.000Z,92.03
2022-10-28T04:35:09.000Z,91.93
2022-10-28T04:36:09.000Z,91.93
2022-10-28T04:37:09.000Z,91.93
2022-10-28T04:38:09.000Z,92.13
2022-10-28T04:39:09.000Z,92.13
2022-10-28T04:40:09.000Z,92.18
2022-10-28T04:41:09.000Z,92.28
2022-10-28T04:42:09.000Z,92.38
2022-10-28T04:43:09.000Z,92.58
2022-10-28T04:44:09.000Z,92.68
2022-10-28T04:45:09.000Z,92.68
2022-10-28T04:46:09.000Z,92.79
2022-10-28T04:47:09.000Z,92.93
2022-10-28T04:48:10.000Z,93.03
2022-10-28T04:49:10.000Z,93.24
2022-10-28T04:50:10.000Z,93.33
2022-10-28T04:51:10.000Z,93.54
2022-10-28T04:52:10.000Z,93.74
2022-10-28T04:53:10.000Z,93.89
2022-10-28T04:54:10.000Z,94.09
2022-10-28T04:55:10.000Z,94.09
2022-10-28T04:56:10.000Z,94.29
2022-10-28T04:57:10.000Z,94.60
2022-10-28T04:58:10.000Z,94.74
2022-10-28T04:59:10.000Z,94.95
2022-10-28T05:00:10.000Z,95.05
2022-10-28T05:01:10.000Z,95.25
2022-10-28T05:02:10.000Z,95.15
2022-10-28T05:03:10.000Z,95.15
2022-10-28T05:04:10.000Z,95.36
2022-10-28T05:05:10.000Z,95.46
2022-10-28T05:06:10.000Z,95.56
2022-10-28T05:07:10.000Z,95.56
2022-10-28T05:08:10.000Z,95.66
2022-10-28T05:09:10.000Z,95.46
2022-10-28T05:10:10.000Z,95.46
2022-10-28T05:11:10.000Z,95.56
2022-10-28T05:12:10.000Z,95.56
2022-10-28T05:13:10.000Z,95.56
2022-10-28T05:14:10.000Z,95.46
2022-10-28T05:15:10.000Z,95.46
2022-10-28T05:16:10.000Z,95.56
2022-10-28T05:17:10.000Z,95.56
2022-10-28T05:18:10.000Z,95.66
2022-10-28T05:19:10.000Z,95.76
2022-10-28T05:20:10.000Z,95.76
2022-10-28T05:21:10.000Z,95.86
2022-10-28T05:22:10.000Z,96.07
2022-10-28T05:23:10.000Z,96.27
2022-10-28T05:24:11.000Z,96.27
2022-10-28T05:25:11.000Z,96.07
2022-10-28T05:26:11.000Z,96.07
2022-10-28T05:27:11.000Z,95.62
2022-10-28T05:28:11.000Z,95.41
2022-10-28T05:29:11.000Z,95.31
2022-10-28T05:30:11.000Z,95.21
2022-10-28T05:31:11.000Z,95.21
2022-10-28T05:32:11.000Z,95.10
2022-10-28T05:33:11.000Z,95.01
2022-10-28T05:34:11.000Z,95.10
2022-10-28T05:35:11.000Z,95.10
2022-10-28T05:36:11.000Z,95.01
2022-10-28T05:37:11.000Z,95.01
2022-10-28T05:38:11.000Z,94.90
2022-10-28T05:39:11.000Z,94.86
2022-10-28T05:40:11.000Z,94.90
2022-10-28T05:41:11.000Z,95.01
2022-10-28T05:42:11.000Z,94.86
2022-10-28T05:43:11.000Z,94.96
2022-10-28T05:44:11.000Z,94.90
2022-10-28T05:45:11.000Z,94.96
2022-10-28T05:46:11.000Z,95.10
2022-10-28T05:47:11.000Z,94.86
2022-10-28T05:48:11.000Z,94.56
2022-10-28T05:49:11.000Z,94.45
2022-10-28T05:50:11.000Z,94.66
2022-10-28T05:51:11.000Z,94.45
2022-10-28T05:52:11.000Z,94.56
2022-10-28T05:53:12.000Z,94.35
2022-10-28T05:54:12.000Z,94.25
2022-10-28T05:55:12.000Z,94.00
2022-10-28T05:56:12.000Z,93.90
2022-10-28T05:57:12.000Z,93.70
2022-10-28T05:58:12.000Z,93.49
2022-10-28T05:59:12.000Z,93.29
2022-10-28T06:00:12.000Z,93.19
2022-10-28T06:01:12.000Z,93.19
2022-10-28T06:02:12.000Z,93.19
2022-10-28T06:03:12.000Z,93.19
2022-10-28T06:04:12.000Z,93.19
2022-10-28T06:05:12.000Z,93.29
2022-10-28T06:06:12.000Z,93.19
2022-10-28T06:07:12.000Z,93.19
2022-10-28T06:08:12.000Z,93.40
2022-10-28T06:09:12.000Z,93.29
2022-10-28T06:10:12.000Z,93.40
2022-10-28T06:11:12.000Z,93.29
2022-10-28T06:12:12.000Z,93.19
2022-10-28T06:13:12.000Z,93.09
2022-10-28T06:14:12.000Z,93.09
2022-10-28T06:15:12.000Z,93.09
2022-10-28T06:16:12.000Z,92.99
2022-10-28T06:17:12.000Z,93.09
2022-10-28T06:18:12.000Z,92.79
2022-10-28T06:19:12.000Z,92.89
2022-10-28T06:20:12.000Z,92.89
2022-10-28T06:21:12.000Z,92.89
2022-10-28T06:22:12.000Z,92.99
2022-10-28T06:23:12.000Z,93.09
2022-10-28T06:24:12.000Z,93.19
2022-10-28T06:25:12.000Z,93.40
2022-10-28T06:26:12.000Z,93.49
2022-10-28T06:27:12.000Z,93.60
2022-10-28T06:28:12.000Z,93.60
2022-10-28T06:29:13.000Z,93.49
2022-10-28T06:30:13.000Z,93.49
2022-10-28T06:31:13.000Z,93.49
2022-10-28T06:32:13.000Z,93.29
2022-10-28T06:33:13.000Z,93.19
2022-10-28T06:34:13.000Z,93.19
2022-10-28T06:35:13.000Z,93.09
2022-10-28T06:36:13.000Z,92.99
2022-10-28T06:37:13.000Z,92.89
2022-10-28T06:38:13.000Z,92.64
2022-10-28T06:39:13.000Z,92.54
2022-10-28T06:40:13.000Z,92.24
2022-10-28T06:41:13.000Z,92.13
2022-10-28T06:42:13.000Z,92.03
2022-10-28T06:43:13.000Z,92.03
2022-10-28T06:44:13.000Z,91.78
2022-10-28T06:45:13.000Z,91.58
2022-10-28T06:46:13.000Z,91.28
2022-10-28T06:47:13.000Z,91.08
2022-10-28T06:48:13.000Z,91.28
2022-10-28T06:49:13.000Z,91.28
2022-10-28T06:50:13.000Z,90.57
2022-10-28T06:51:13.000Z,90.53
2022-10-28T06:52:13.000Z,90.62
2022-10-28T06:53:13.000Z,90.42
2022-10-28T06:54:13.000Z,90.02
2022-10-28T06:55:13.000Z,90.02
2022-10-28T06:56:13.000Z,89.61
2022-10-28T06:57:13.000Z,89.57
2022-10-28T06:58:13.000Z,89.26
2022-10-28T06:59:13.000Z,89.17
2022-10-28T07:00:13.000Z,89.17
2022-10-28T07:01:14.000Z,88.76
2022-10-28T07:02:14.000Z,88.51
2022-10-28T07:03:14.000Z,88.42
2022-10-28T07:04:14.000Z,88.21
2022-10-28T07:05:14.000Z,88.31
2022-10-28T07:06:14.000Z,88.21
2022-10-28T07:07:14.000Z,88.31
2022-10-28T07:08:14.000Z,87.91
2022-10-28T07:09:14.000Z,87.91
2022-10-28T07:10:14.000Z,87.91
2022-10-28T07:11:14.000Z,87.77
2022-10-28T07:12:14.000Z,87.66
2022-10-28T07:13:14.000Z,87.36
2022-10-28T07:14:14.000Z,87.46
2022-10-28T07:15:14.000Z,87.26
2022-10-28T07:16:14.000Z,87.26
2022-10-28T07:17:14.000Z,87.16
2022-10-28T07:18:14.000Z,87.16
2022-10-28T07:19:14.000Z,87.22
2022-10-28T07:20:14.000Z,86.61
2022-10-28T07:21:14.000Z,86.51
2022-10-28T07:22:14.000Z,86.51
2022-10-28T07:23:14.000Z,87.02
2022-10-28T07:24:14.000Z,86.41
2022-10-28T07:25:14.000Z,86.31
2022-10-28T07:26:14.000Z,86.47
2022-10-28T07:27:14.000Z,86.07
2022-10-28T07:28:14.000Z,85.96
2022-10-28T07:29:14.000Z,85.86
2022-10-28T07:30:14.000Z,85.76
2022-10-28T07:31:14.000Z,85.86
2022-10-28T07:32:14.000Z,85.86
2022-10-28T07:33:14.000Z,85.66
2022-10-28T07:34:14.000Z,85.96
2022-10-28T07:35:14.000Z,85.86
2022-10-28T07:36:14.000Z,85.76
2022-10-28T07:37:14.000Z,85.86
2022-10-28T07:38:14.000Z,85.96
2022-10-28T07:39:14.000Z,86.67
2022-10-28T07:40:14.000Z,86.27
2022-10-28T07:41:14.000Z,86.27
2022-10-28T07:42:14.000Z,86.27
2022-10-28T07:43:14.000Z,86.47
2022-10-28T07:44:14.000Z,86.37
2022-10-28T07:45:14.000Z,86.16
2022-10-28T07:46:14.000Z,86.57
2022-10-28T07:47:14.000Z,86.98
2022-10-28T07:48:14.000Z,86.67
2022-10-28T07:49:14.000Z,87.28
2022-10-28T07:50:14.000Z,87.48
2022-10-28T07:51:14.000Z,86.98
2022-10-28T07:52:14.000Z,86.87
2022-10-28T07:53:14.000Z,87.48
2022-10-28T07:54:14.000Z,87.58
2022-10-28T07:55:14.000Z,87.99
2022-10-28T07:56:14.000Z,87.79
2022-10-28T07:57:14.000Z,87.88
2022-10-28T07:58:14.000Z,87.88
2022-10-28T07:59:14.000Z,87.38
2022-10-28T08:00:14.000Z,87.58
2022-10-28T08:01:14.000Z,87.48
2022-10-28T08:02:14.000Z,87.18
2022-10-28T08:03:14.000Z,87.18
2022-10-28T08:04:14.000Z,86.98
2022-10-28T08:05:14.000Z,87.08
2022-10-28T08:06:14.000Z,87.18
2022-10-28T08:07:14.000Z,87.08
2022-10-28T08:08:14.000Z,87.28
2022-10-28T08:09:14.000Z,87.08
2022-10-28T08:10:14.000Z,87.58
2022-10-28T08:11:15.000Z,87.68
2022-10-28T08:12:14.000Z,87.68
2022-10-28T08:13:15.000Z,87.08
2022-10-28T08:14:15.000Z,87.79
2022-10-28T08:15:15.000Z,87.48
2022-10-28T08:16:15.000Z,86.73
2022-10-28T08:17:15.000Z,86.43
2022-10-28T08:18:14.000Z,86.98
2022-10-28T08:19:14.000Z,86.83
2022-10-28T08:20:14.000Z,86.43
2022-10-28T08:21:14.000Z,86.83
2022-10-28T08:22:14.000Z,86.73
2022-10-28T08:23:14.000Z,87.24
2022-10-28T08:24:14.000Z,86.43
2022-10-28T08:25:14.000Z,87.34
2022-10-28T08:26:14.000Z,87.04
2022-10-28T08:27:15.000Z,86.63
2022-10-28T08:28:15.000Z,86.73
2022-10-28T08:29:15.000Z,86.93
2022-10-28T08:30:15.000Z,86.63
2022-10-28T08:31:15.000Z,86.33
2022-10-28T08:32:15.000Z,86.43
2022-10-28T08:33:15.000Z,86.73
2022-10-28T08:34:15.000Z,86.63
2022-10-28T08:35:15.000Z,86.13
2022-10-28T08:36:15.000Z,86.53
2022-10-28T08:37:15.000Z,86.73
2022-10-28T08:38:15.000Z,86.83
2022-10-28T08:39:15.000Z,87.04
2022-10-28T08:40:15.000Z,87.13
2022-10-28T08:41:15.000Z,86.83
2022-10-28T08:42:15.000Z,86.93
2022-10-28T08:43:15.000Z,86.13
2022-10-28T08:44:15.000Z,86.39
2022-10-28T08:45:15.000Z,86.49
2022-10-28T08:46:15.000Z,86.29
2022-10-28T08:47:15.000Z,86.39
2022-10-28T08:48:15.000Z,85.88
2022-10-28T08:49:15.000Z,86.19
2022-10-28T08:50:15.000Z,86.79
2022-10-28T08:51:15.000Z,86.29
2022-10-28T08:52:15.000Z,87.10
2022-10-28T08:53:15.000Z,86.99
2022-10-28T08:54:15.000Z,86.69
2022-10-28T08:55:15.000Z,85.68
2022-10-28T08:56:15.000Z,86.35
2022-10-28T08:57:15.000Z,86.79
2022-10-28T08:58:15.000Z,85.84
2022-10-28T08:59:15.000Z,85.24
2022-10-28T09:00:15.000Z,85.64
2022-10-28T09:01:15.000Z,85.44
2022-10-28T09:02:15.000Z,85.14
2022-10-28T09:03:15.000Z,85.03
2022-10-28T09:04:15.000Z,85.44
2022-10-28T09:05:15.000Z,85.03
2022-10-28T09:06:15.000Z,84.89
2022-10-28T09:07:15.000Z,84.89
2022-10-28T09:08:15.000Z,84.89
2022-10-28T09:09:15.000Z,84.69
2022-10-28T09:10:15.000Z,84.99
2022-10-28T09:11:15.000Z,84.09
2022-10-28T09:12:15.000Z,84.89
2022-10-28T09:13:15.000Z,84.69
2022-10-28T09:14:15.000Z,85.30
2022-10-28T09:15:15.000Z,84.49
2022-10-28T09:16:15.000Z,84.35
2022-10-28T09:17:15.000Z,84.85
2022-10-28T09:18:15.000Z,84.45
2022-10-28T09:19:15.000Z,84.45
2022-10-28T09:20:15.000Z,83.91
2022-10-28T09:21:15.000Z,83.50
2022-10-28T09:22:15.000Z,83.50
2022-10-28T09:23:15.000Z,83.60
2022-10-28T09:24:15.000Z,83.50
2022-10-28T09:25:15.000Z,83.30
2022-10-28T09:26:15.000Z,83.76
2022-10-28T09:27:15.000Z,83.76
2022-10-28T09:28:15.000Z,83.36
2022-10-28T09:29:15.000Z,82.62
2022-10-28T09:30:15.000Z,82.31
2022-10-28T09:31:15.000Z,82.11
2022-10-28T09:32:15.000Z,81.41
2022-10-28T09:33:15.000Z,81.07
2022-10-28T09:34:15.000Z,81.37
2022-10-28T09:35:15.000Z,81.57
2022-10-28T09:36:15.000Z,81.84
2022-10-28T09:37:15.000Z,81.73
2022-10-28T09:38:15.000Z,81.98
2022-10-28T09:39:15.000Z,81.37
2022-10-28T09:40:15.000Z,81.47
2022-10-28T09:41:15.000Z,81.98
2022-10-28T09:42:15.000Z,81.47
2022-10-28T09:43:15.000Z,82.18
2022-10-28T09:44:15.000Z,81.87
2022-10-28T09:45:15.000Z,81.87
2022-10-28T09:46:15.000Z,82.18
2022-10-28T09:47:15.000Z,80.87
2022-10-28T09:48:14.000Z,80.87
2022-10-28T09:49:14.000Z,80.46
2022-10-28T09:50:14.000Z,80.26
2022-10-28T09:51:14.000Z,81.27
2022-10-28T09:52:14.000Z,80.97
2022-10-28T09:53:14.000Z,81.98
2022-10-28T09:54:14.000Z,81.17
2022-10-28T09:55:14.000Z,80.73
2022-10-28T09:56:14.000Z,81.43
2022-10-28T09:57:14.000Z,80.73
2022-10-28T09:58:14.000Z,80.93
2022-10-28T09:59:14.000Z,80.63
2022-10-28T10:00:14.000Z,81.03
2022-10-28T10:01:14.000Z,81.23
2022-10-28T10:02:14.000Z,81.33
2022-10-28T10:03:14.000Z,80.12
2022-10-28T10:04:14.000Z,80.63
2022-10-28T10:05:14.000Z,80.52
2022-10-28T10:06:14.000Z,81.73
2022-10-28T10:07:14.000Z,81.23
2022-10-28T10:08:14.000Z,80.02
2022-10-28T10:09:14.000Z,79.32
2022-10-28T10:10:14.000Z,79.52
2022-10-28T10:11:14.000Z,79.52
2022-10-28T10:12:14.000Z,79.48
2022-10-28T10:13:14.000Z,80.12
2022-10-28T10:14:14.000Z,79.68
2022-10-28T10:15:14.000Z,79.82
2022-10-28T10:16:14.000Z,79.42
2022-10-28T10:17:14.000Z,79.68
2022-10-28T10:18:14.000Z,79.38
2022-10-28T10:19:14.000Z,79.08
2022-10-28T10:20:14.000Z,78.38
2022-10-28T10:21:14.000Z,79.28
2022-10-28T10:22:14.000Z,79.18
2022-10-28T10:23:14.000Z,79.28
2022-10-28T10:24:14.000Z,78.64
2022-10-28T10:25:14.000Z,78.94
2022-10-28T10:26:14.000Z,77.43
2022-10-28T10:27:14.000Z,77.94
2022-10-28T10:28:14.000Z,77.53
2022-10-28T10:29:14.000Z,78.14
2022-10-28T10:30:14.000Z,77.43
2022-10-28T10:31:14.000Z,78.03
2022-10-28T10:32:14.000Z,77.23
2022-10-28T10:33:14.000Z,78.23
2022-10-28T10:34:14.000Z,78.34
2022-10-28T10:35:14.000Z,77.53
2022-10-28T10:36:14.000Z,77.13
2022-10-28T10:37:14.000Z,77.53
2022-10-28T10:38:14.000Z,78.03
2022-10-28T10:39:14.000Z,78.23
2022-10-28T10:40:14.000Z,78.44
2022-10-28T10:41:14.000Z,78.74
2022-10-28T10:42:14.000Z,78.17
2022-10-28T10:43:14.000Z,77.94
2022-10-28T10:44:14.000Z,77.63
2022-10-28T10:45:14.000Z,78.23
2022-10-28T10:46:14.000Z,77.94
2022-10-28T10:47:14.000Z,78.14
2022-10-28T10:48:14.000Z,77.53
2022-10-28T10:49:14.000Z,77.63
2022-10-28T10:50:14.000Z,78.74
2022-10-28T10:51:14.000Z,76.93
2022-10-28T10:52:14.000Z,76.63
2022-10-28T10:53:13.000Z,77.09
2022-10-28T10:54:13.000Z,77.09
2022-10-28T10:55:13.000Z,76.09
2022-10-28T10:56:13.000Z,77.26
2022-10-28T10:57:13.000Z,77.39
2022-10-28T10:58:13.000Z,76.45
2022-10-28T10:59:13.000Z,76.45
2022-10-28T11:00:13.000Z,76.65
2022-10-28T11:01:13.000Z,75.82
2022-10-28T11:02:13.000Z,75.71
2022-10-28T11:03:13.000Z,74.81
2022-10-28T11:04:13.000Z,76.02
2022-10-28T11:05:13.000Z,76.21
2022-10-28T11:06:13.000Z,76.21
2022-10-28T11:07:13.000Z,76.18
2022-10-28T11:08:13.000Z,75.58
2022-10-28T11:09:13.000Z,74.98
2022-10-28T11:10:13.000Z,75.27
2022-10-28T11:11:13.000Z,75.27
2022-10-28T11:12:13.000Z,75.98
2022-10-28T11:13:13.000Z,74.07
2022-10-28T11:14:13.000Z,74.37
2022-10-28T11:15:13.000Z,73.57
2022-10-28T11:16:13.000Z,74.24
2022-10-28T11:17:13.000Z,74.34
2022-10-28T11:18:13.000Z,74.44
2022-10-28T11:19:13.000Z,74.04
2022-10-28T11:20:13.000Z,73.13
2022-10-28T11:21:13.000Z,73.74
2022-10-28T11:22:13.000Z,73.03
2022-10-28T11:23:13.000Z,73.10
2022-10-28T11:24:13.000Z,74.10
2022-10-28T11:25:13.000Z,73.30
2022-10-28T11:26:13.000Z,71.90
2022-10-28T11:27:13.000Z,71.86
2022-10-28T11:28:13.000Z,71.26
2022-10-28T11:29:13.000Z,71.26
2022-10-28T11:30:13.000Z,71.16
2022-10-28T11:31:13.000Z,70.66
2022-10-28T11:32:13.000Z,71.26
2022-10-28T11:33:13.000Z,71.26
2022-10-28T11:34:13.000Z,71.63
2022-10-28T11:35:13.000Z,72.33
2022-10-28T11:36:13.000Z,72.06
2022-10-28T11:37:13.000Z,72.27
2022-10-28T11:38:13.000Z,71.96
2022-10-28T11:39:13.000Z,73.16
2022-10-28T11:40:12.000Z,73.67
2022-10-28T11:41:12.000Z,73.47
2022-10-28T11:42:12.000Z,73.16
2022-10-28T11:43:12.000Z,73.77
2022-10-28T11:44:12.000Z,73.77
2022-10-28T11:45:12.000Z,74.03
2022-10-28T11:46:12.000Z,72.93
2022-10-28T11:47:12.000Z,73.83
2022-10-28T11:48:12.000Z,73.43
2022-10-28T11:49:12.000Z,73.03
2022-10-28T11:50:12.000Z,73.13
2022-10-28T11:51:12.000Z,72.69
2022-10-28T11:52:12.000Z,73.10
2022-10-28T11:53:12.000Z,74.00
2022-10-28T11:54:12.000Z,73.80
2022-10-28T11:55:12.000Z,72.76
2022-10-28T11:56:12.000Z,73.06
2022-10-28T11:57:12.000Z,72.16
2022-10-28T11:58:12.000Z,72.16
2022-10-28T11:59:12.000Z,71.16
2022-10-28T12:00:12.000Z,71.36
2022-10-28T12:01:12.000Z,71.26
2022-10-28T12:02:12.000Z,71.03
2022-10-28T12:03:12.000Z,70.92
2022-10-28T12:04:12.000Z,70.73
2022-10-28T12:05:12.000Z,71.03
2022-10-28T12:06:12.000Z,71.33
2022-10-28T12:07:12.000Z,72.09
2022-10-28T12:08:12.000Z,70.99
2022-10-28T12:09:12.000Z,71.99
2022-10-28T12:10:12.000Z,71.36
2022-10-28T12:11:12.000Z,70.16
2022-10-28T12:12:12.000Z,70.26
2022-10-28T12:13:12.000Z,70.12
2022-10-28T12:14:12.000Z,69.02
2022-10-28T12:15:11.000Z,69.02
2022-10-28T12:16:11.000Z,68.99
2022-10-28T12:17:11.000Z,69.69
2022-10-28T12:18:11.000Z,69.69
2022-10-28T12:19:11.000Z,69.76
2022-10-28T12:20:11.000Z,69.06
2022-10-28T12:21:11.000Z,70.06
2022-10-28T12:22:11.000Z,68.13
2022-10-28T12:23:11.000Z,67.63
2022-10-28T12:24:11.000Z,66.90
2022-10-28T12:25:11.000Z,66.60
2022-10-28T12:26:11.000Z,67.20
2022-10-28T12:27:11.000Z,66.30
2022-10-28T12:28:11.000Z,66.20
2022-10-28T12:29:11.000Z,67.50
2022-10-28T12:30:11.000Z,68.10
2022-10-28T12:31:11.000Z,67.00
2022-10-28T12:32:11.000Z,67.60
2022-10-28T12:33:11.000Z,66.60
2022-10-28T12:34:11.000Z,67.00
2022-10-28T12:35:11.000Z,66.80
2022-10-28T12:36:11.000Z,66.63
2022-10-28T12:37:11.000Z,68.03
2022-10-28T12:38:11.000Z,67.73
2022-10-28T12:39:11.000Z,68.13
2022-10-28T12:40:11.000Z,68.33
2022-10-28T12:41:10.000Z,68.13
2022-10-28T12:42:10.000Z,69.02
2022-10-28T12:43:10.000Z,68.83
2022-10-28T12:44:10.000Z,69.43
2022-10-28T12:45:10.000Z,69.73
2022-10-28T12:46:10.000Z,69.96
2022-10-28T12:47:10.000Z,69.66
2022-10-28T12:48:10.000Z,69.96
2022-10-28T12:49:10.000Z,70.26
2022-10-28T12:50:10.000Z,69.16
2022-10-28T12:51:10.000Z,70.65
2022-10-28T12:52:10.000Z,70.65
2022-10-28T12:53:10.000Z,69.89
2022-10-28T12:54:10.000Z,69.99
2022-10-28T12:55:10.000Z,70.69
2022-10-28T12:56:10.000Z,71.09
2022-10-28T12:57:10.000Z,71.09
2022-10-28T12:58:10.000Z,71.49